Time;durP1;ratioP1;P1;durP2;ratioP2;P2;SDS_P1;SDS_P2;PMS_P1;PMS_P2;Temp;Humidity;BMP_temperature;BMP_pressure;BME280_temperature;BME280_humidity;BME280_pressure;Samples;Min_cycle;Max_cycle;Signal;HPM_P1;HPM_P2
2022/01/18 00:00:18;;;;;;;26.45;3.88;;;7.90;99.90;;;;;;4834496;29;20065;-81
2022/01/18 00:02:55;;;;;;;31.65;4.40;;;7.90;99.90;;;;;;4849121;29;20148;-81
2022/01/18 00:05:25;;;;;;;25.35;3.67;;;7.90;99.90;;;;;;4834328;29;20029;-80
2022/01/18 00:07:52;;;;;;;17.38;2.50;;;7.90;99.90;;;;;;4843834;29;20050;-81
2022/01/18 00:10:19;;;;;;;30.67;3.60;;;7.90;99.90;;;;;;4833173;29;20041;-83
2022/01/18 00:13:07;;;;;;;32.40;3.83;;;7.90;99.90;;;;;;4833642;29;20049;-81
2022/01/18 00:15:53;;;;;;;22.90;2.50;;;7.90;99.90;;;;;;4845290;29;20044;-81
2022/01/18 00:18:28;;;;;;;28.10;3.92;;;7.90;99.90;;;;;;4823011;29;20038;-79
2022/01/18 00:23:45;;;;;;;29.00;3.53;;;7.90;99.90;;;;;;4853222;29;20026;-84
2022/01/18 00:26:32;;;;;;;25.80;3.45;;;7.90;99.90;;;;;;4849832;29;20063;-84
2022/01/18 00:29:06;;;;;;;31.60;3.80;;;7.90;99.90;;;;;;4848765;29;20044;-79
2022/01/18 00:31:43;;;;;;;34.25;4.78;;;7.90;99.90;;;;;;4850258;29;20052;-79
2022/01/18 00:34:19;;;;;;;29.10;3.40;;;7.90;99.90;;;;;;4833577;29;20033;-78
2022/01/18 00:37:12;;;;;;;41.33;3.72;;;7.90;99.90;;;;;;4846912;29;20030;-79
2022/01/18 00:39:56;;;;;;;25.10;3.83;;;7.90;99.90;;;;;;4831401;29;20042;-79
2022/01/18 00:42:32;;;;;;;41.63;7.60;;;7.90;99.90;;;;;;4842236;29;20050;-80
2022/01/18 00:45:31;;;;;;;28.15;4.30;;;7.90;99.90;;;;;;4850120;29;20480;-80
2022/01/18 00:48:05;;;;;;;39.88;5.93;;;7.90;99.90;;;;;;4841444;29;20463;-80
2022/01/18 00:51:15;;;;;;;31.70;4.90;;;7.90;99.90;;;;;;4837402;29;20061;-79
2022/01/18 00:53:50;;;;;;;35.60;3.95;;;7.90;99.90;;;;;;4842905;29;20041;-79
2022/01/18 00:56:23;;;;;;;31.52;3.70;;;7.90;99.90;;;;;;4846570;29;20037;-79
2022/01/18 00:59:03;;;;;;;22.90;3.17;;;7.90;99.90;;;;;;4848531;29;20030;-79
2022/01/18 01:01:46;;;;;;;28.67;4.40;;;7.90;99.90;;;;;;4846835;29;20030;-79
2022/01/18 01:04:32;;;;;;;31.67;4.30;;;7.90;99.90;;;;;;4848449;29;20033;-79
2022/01/18 01:07:27;;;;;;;27.85;4.22;;;7.90;99.90;;;;;;4846160;29;20061;-80
2022/01/18 01:10:00;;;;;;;40.22;5.43;;;7.90;99.90;;;;;;4847969;29;20062;-79
2022/01/18 01:12:31;;;;;;;36.33;5.43;;;7.90;99.90;;;;;;4832523;29;20034;-79
2022/01/18 01:15:11;;;;;;;32.47;5.75;;;7.80;99.90;;;;;;4829685;29;20053;-78
2022/01/18 01:17:49;;;;;;;28.58;4.00;;;7.80;99.90;;;;;;4832839;29;20133;-78
2022/01/18 01:36:08;;;;;;;37.25;5.07;;;7.90;99.90;;;;;;4812146;29;20043;-80
2022/01/18 01:44:48;;;;;;;30.35;4.10;;;7.80;99.90;;;;;;4848296;29;20037;-80
2022/01/18 01:47:34;;;;;;;37.65;5.22;;;7.80;99.90;;;;;;4851480;29;20041;-80
2022/01/18 01:50:18;;;;;;;36.08;5.65;;;7.90;99.90;;;;;;4846228;29;20037;-80
2022/01/18 01:53:04;;;;;;;32.13;4.20;;;7.80;99.90;;;;;;4831954;29;20450;-80
2022/01/18 01:55:36;;;;;;;32.58;4.75;;;7.80;99.90;;;;;;4845124;29;20053;-80
2022/01/18 01:58:10;;;;;;;33.30;5.63;;;7.80;99.90;;;;;;4813112;29;20094;-81
2022/01/18 02:00:54;;;;;;;40.85;6.18;;;7.80;99.90;;;;;;4836011;29;20053;-81
2022/01/18 02:03:32;;;;;;;27.33;4.35;;;7.80;99.90;;;;;;4831073;29;20033;-81
2022/01/18 02:06:04;;;;;;;27.35;5.38;;;7.80;99.90;;;;;;4828862;29;20065;-81
2022/01/18 02:08:48;;;;;;;29.90;4.70;;;7.80;99.90;;;;;;4833548;29;20491;-81
2022/01/18 02:11:27;;;;;;;33.92;4.07;;;7.80;99.90;;;;;;4835308;29;20045;-81
2022/01/18 02:14:16;;;;;;;32.53;3.95;;;7.80;99.90;;;;;;4822912;29;20066;-81
2022/01/18 02:22:36;;;;;;;27.98;3.90;;;7.80;99.90;;;;;;4829099;29;20072;-81
2022/01/18 02:25:11;;;;;;;27.58;3.78;;;7.80;99.90;;;;;;4853420;29;20048;-81
2022/01/18 02:27:39;;;;;;;29.75;4.00;;;7.80;99.90;;;;;;4833988;29;20034;-81
2022/01/18 02:30:19;;;;;;;36.10;4.20;;;7.80;99.90;;;;;;4849324;29;20034;-81
2022/01/18 02:32:59;;;;;;;35.55;4.80;;;7.90;99.90;;;;;;4848698;29;20038;-81
2022/01/18 02:35:38;;;;;;;46.53;5.03;;;7.80;99.90;;;;;;4856013;29;20068;-82
2022/01/18 02:38:10;;;;;;;31.58;4.38;;;7.80;99.90;;;;;;4835720;29;20064;-81
2022/01/18 02:40:37;;;;;;;39.75;4.60;;;7.80;99.90;;;;;;4835319;29;20397;-81
2022/01/18 02:46:00;;;;;;;26.00;3.00;;;7.80;99.90;;;;;;4850776;29;20774;-80
2022/01/18 02:48:58;;;;;;;31.00;4.88;;;7.80;99.90;;;;;;4849516;29;20065;-80
2022/01/18 02:51:33;;;;;;;28.95;4.40;;;7.80;99.90;;;;;;4830467;29;20053;-80
2022/01/18 02:54:13;;;;;;;35.20;5.38;;;7.80;99.90;;;;;;4832307;29;20046;-80
2022/01/18 02:56:55;;;;;;;34.83;4.38;;;7.80;99.90;;;;;;4840533;29;20399;-79
2022/01/18 02:59:48;;;;;;;39.05;5.30;;;7.80;99.90;;;;;;4853401;29;20909;-79
2022/01/18 03:05:16;;;;;;;37.47;5.78;;;7.80;99.90;;;;;;4852892;29;20045;-80
2022/01/18 03:07:43;;;;;;;30.27;5.05;;;7.80;99.90;;;;;;4849735;29;20053;-80
2022/01/18 03:10:20;;;;;;;30.67;4.35;;;7.80;99.90;;;;;;4851785;29;20402;-80
2022/01/18 03:12:48;;;;;;;31.75;4.75;;;7.80;99.90;;;;;;4852494;29;20516;-79
2022/01/18 03:15:20;;;;;;;25.85;4.75;;;7.80;99.90;;;;;;4820290;29;21630;-79
2022/01/18 03:17:48;;;;;;;32.47;4.20;;;7.80;99.90;;;;;;4852374;29;20042;-79
2022/01/18 03:20:19;;;;;;;33.22;5.32;;;7.80;99.90;;;;;;4835098;29;20118;-79
2022/01/18 03:22:50;;;;;;;37.33;5.03;;;7.80;99.90;;;;;;4851414;29;20068;-79
2022/01/18 03:28:08;;;;;;;30.48;4.97;;;7.80;99.90;;;;;;4846479;29;19923;-80
2022/01/18 03:30:49;;;;;;;32.40;5.22;;;7.70;99.90;;;;;;4811917;29;20054;-79
2022/01/18 03:33:24;;;;;;;36.90;5.88;;;7.70;99.90;;;;;;4831928;29;20367;-80
2022/01/18 03:35:59;;;;;;;36.70;6.28;;;7.70;99.90;;;;;;4849499;29;20486;-80
2022/01/18 03:38:32;;;;;;;38.55;6.70;;;7.70;99.90;;;;;;4835163;29;20418;-80
2022/01/18 03:41:04;;;;;;;38.65;6.03;;;7.70;99.90;;;;;;4813209;29;20049;-80
2022/01/18 03:43:34;;;;;;;40.25;6.40;;;7.70;99.90;;;;;;4845314;29;20072;-80
2022/01/18 03:46:04;;;;;;;38.67;5.70;;;7.70;99.90;;;;;;4836419;29;20041;-80
2022/01/18 03:48:37;;;;;;;32.40;5.82;;;7.70;99.90;;;;;;4830908;29;20041;-80
2022/01/18 03:51:06;;;;;;;39.15;5.82;;;7.70;99.90;;;;;;4827782;29;20118;-80
2022/01/18 03:53:38;;;;;;;43.90;6.03;;;7.70;99.90;;;;;;4826637;29;20049;-79
2022/01/18 03:56:13;;;;;;;31.63;5.28;;;7.70;99.90;;;;;;4824423;29;20042;-80
2022/01/18 03:58:42;;;;;;;51.15;5.90;;;7.70;99.90;;;;;;4841329;29;20068;-80
2022/01/18 04:01:10;;;;;;;36.75;5.32;;;7.70;99.90;;;;;;4839805;29;20030;-80
2022/01/18 04:03:47;;;;;;;47.08;6.43;;;7.70;99.90;;;;;;4838591;29;20088;-80
2022/01/18 04:06:22;;;;;;;37.85;5.55;;;7.70;99.90;;;;;;4825061;29;20043;-80
2022/01/18 04:09:05;;;;;;;34.85;5.80;;;7.70;99.90;;;;;;4840472;29;20058;-81
2022/01/18 04:11:33;;;;;;;38.28;5.22;;;7.70;99.90;;;;;;4839901;29;20055;-81
2022/01/18 04:14:04;;;;;;;26.63;5.00;;;7.70;99.90;;;;;;4821622;29;20072;-81
2022/01/18 04:16:41;;;;;;;21.83;4.63;;;7.70;99.90;;;;;;4839730;29;20068;-81
2022/01/18 04:25:46;;;;;;;35.33;5.00;;;7.70;99.90;;;;;;4840997;29;20497;-81
2022/01/18 04:27:41;;;;;;;37.20;4.72;;;7.60;99.90;;;;;;4833833;29;20352;-80
2022/01/18 04:30:11;;;;;;;39.00;4.72;;;7.60;99.90;;;;;;4852040;29;20038;-80
2022/01/18 04:32:38;;;;;;;34.88;4.78;;;7.50;99.90;;;;;;4845869;29;20053;-80
2022/01/18 04:35:05;;;;;;;32.65;4.72;;;7.50;99.90;;;;;;4827300;29;20410;-80
2022/01/18 04:37:31;;;;;;;33.70;5.65;;;7.50;99.90;;;;;;4818428;29;20045;-80
2022/01/18 04:39:59;;;;;;;44.85;5.57;;;7.50;99.90;;;;;;4823071;29;20034;-80
2022/01/18 04:42:39;;;;;;;48.97;6.53;;;7.50;99.90;;;;;;4827010;29;20041;-80
2022/01/18 04:50:36;;;;;;;53.17;7.75;;;7.50;99.90;;;;;;4823649;29;20038;-80
2022/01/18 04:53:03;;;;;;;41.20;6.88;;;7.50;99.90;;;;;;4840149;29;20043;-80
2022/01/18 04:55:32;;;;;;;41.25;7.65;;;7.40;99.90;;;;;;4837604;29;20033;-80
2022/01/18 04:57:59;;;;;;;37.80;5.88;;;7.40;99.90;;;;;;4838035;29;20048;-80
2022/01/18 05:00:26;;;;;;;30.45;6.70;;;7.40;99.90;;;;;;4827060;29;20044;-80
2022/01/18 05:02:53;;;;;;;40.53;8.10;;;7.40;99.90;;;;;;4822836;29;20042;-80
2022/01/18 05:05:25;;;;;;;39.50;7.28;;;7.40;99.90;;;;;;4832241;29;20034;-80
2022/01/18 05:08:04;;;;;;;31.13;7.18;;;7.40;99.90;;;;;;4821511;29;20061;-80
2022/01/18 05:10:31;;;;;;;23.88;6.53;;;7.40;99.90;;;;;;4843233;29;20120;-82
2022/01/18 05:13:11;;;;;;;36.53;8.50;;;7.40;99.90;;;;;;4839562;29;20052;-80
2022/01/18 05:15:45;;;;;;;33.95;7.05;;;7.30;99.90;;;;;;4838429;29;20048;-79
2022/01/18 05:23:35;;;;;;;25.30;5.70;;;7.20;99.90;;;;;;4841961;29;20049;-79
2022/01/18 05:26:04;;;;;;;30.45;6.43;;;7.30;99.90;;;;;;4817683;29;20033;-80
2022/01/18 05:28:30;;;;;;;34.50;7.13;;;7.20;99.90;;;;;;4822842;29;20046;-80
2022/01/18 05:30:57;;;;;;;28.75;7.25;;;7.30;99.90;;;;;;4838999;29;20041;-80
2022/01/18 05:33:23;;;;;;;27.75;6.18;;;7.30;99.90;;;;;;4839579;29;20050;-80
2022/01/18 05:35:50;;;;;;;29.42;7.22;;;7.20;99.90;;;;;;4825954;29;20066;-80
2022/01/18 05:38:20;;;;;;;26.25;6.13;;;7.20;99.90;;;;;;4845022;29;20492;-80
2022/01/18 05:40:47;;;;;;;28.13;6.80;;;7.20;99.90;;;;;;4839540;29;20045;-82
2022/01/18 05:43:17;;;;;;;25.90;6.07;;;7.20;99.90;;;;;;4841904;29;20045;-81
2022/01/18 05:45:46;;;;;;;26.73;6.35;;;7.20;99.90;;;;;;4824245;29;20053;-81
2022/01/18 05:48:35;;;;;;;29.92;7.22;;;7.20;99.90;;;;;;4843677;29;20037;-81
2022/01/18 05:51:15;;;;;;;21.25;6.00;;;7.20;99.90;;;;;;4843870;29;20026;-80
2022/01/18 05:54:45;;;;;;;20.85;5.78;;;7.20;99.90;;;;;;4849192;29;20112;-80
2022/01/18 05:58:17;;;;;;;17.83;5.30;;;7.10;99.90;;;;;;4773251;29;20043;-79
2022/01/18 06:01:21;;;;;;;25.50;5.70;;;7.10;99.90;;;;;;4759224;29;20047;-80
2022/01/18 06:06:51;;;;;;;18.27;5.15;;;7.10;99.90;;;;;;4770758;29;20062;-79
2022/01/18 06:12:29;;;;;;;26.77;5.78;;;7.10;99.90;;;;;;4822747;29;20331;-79
2022/01/18 06:15:08;;;;;;;23.42;5.68;;;7.10;99.90;;;;;;4842699;29;20030;-80
2022/01/18 06:17:52;;;;;;;27.58;6.07;;;7.10;99.90;;;;;;4841879;29;20050;-80
2022/01/18 06:20:47;;;;;;;18.13;4.70;;;7.10;99.90;;;;;;4839873;29;20517;-80
2022/01/18 06:23:19;;;;;;;24.52;5.03;;;7.10;99.90;;;;;;4845366;29;20045;-80
2022/01/18 06:25:50;;;;;;;15.13;4.15;;;7.10;99.90;;;;;;4843833;29;20065;-78
2022/01/18 06:28:27;;;;;;;18.02;3.30;;;7.10;99.90;;;;;;4844103;29;20493;-79
2022/01/18 06:31:01;;;;;;;17.90;3.30;;;7.10;99.90;;;;;;4842104;29;20351;-82
2022/01/18 06:33:56;;;;;;;15.75;3.60;;;7.10;99.90;;;;;;4843458;29;20065;-79
2022/01/18 06:36:55;;;;;;;12.95;3.85;;;7.10;99.90;;;;;;4839306;29;20053;-79
2022/01/18 06:39:32;;;;;;;15.05;4.03;;;7.10;99.90;;;;;;4840851;29;20520;-79
2022/01/18 06:42:48;;;;;;;17.55;4.10;;;7.00;99.90;;;;;;4836508;29;20065;-79
2022/01/18 06:45:27;;;;;;;14.07;3.45;;;7.10;99.90;;;;;;4844863;29;20033;-80
2022/01/18 06:47:55;;;;;;;17.95;3.97;;;7.00;99.90;;;;;;4843312;29;20038;-79
2022/01/18 06:50:53;;;;;;;13.82;3.38;;;7.00;99.90;;;;;;4844446;29;20041;-79
2022/01/18 06:53:32;;;;;;;15.35;4.32;;;7.00;99.90;;;;;;4826263;29;20060;-79
2022/01/18 06:56:06;;;;;;;20.23;5.32;;;7.00;99.90;;;;;;4855080;29;20040;-81
2022/01/18 06:58:32;;;;;;;16.83;4.13;;;7.00;99.90;;;;;;4852611;29;20049;-78
2022/01/18 07:01:05;;;;;;;14.65;3.90;;;7.00;99.90;;;;;;4851463;29;20029;-79
2022/01/18 07:03:33;;;;;;;16.38;4.15;;;7.00;99.90;;;;;;4837245;29;20452;-78
2022/01/18 07:05:59;;;;;;;19.80;4.63;;;7.00;99.90;;;;;;4858266;29;20384;-77
2022/01/18 07:08:34;;;;;;;18.58;4.00;;;7.00;99.90;;;;;;4845776;29;20038;-80
2022/01/18 07:11:09;;;;;;;16.80;4.47;;;7.00;99.90;;;;;;4843842;29;20042;-80
2022/01/18 07:13:35;;;;;;;15.95;4.40;;;7.00;99.90;;;;;;4854860;29;20030;-79
2022/01/18 07:16:06;;;;;;;21.38;4.78;;;7.00;99.90;;;;;;4849919;29;20038;-78
2022/01/18 07:18:43;;;;;;;22.23;5.40;;;7.00;99.90;;;;;;4850513;29;20038;-79
2022/01/18 07:21:12;;;;;;;26.30;5.72;;;7.00;99.90;;;;;;4847430;29;20053;-81
2022/01/18 07:23:42;;;;;;;22.67;5.82;;;7.00;99.90;;;;;;4847293;29;20049;-81
2022/01/18 07:26:08;;;;;;;20.23;6.07;;;7.00;99.90;;;;;;4832157;29;20048;-81
2022/01/18 07:28:45;;;;;;;23.88;7.10;;;7.00;99.90;;;;;;4851580;29;20041;-81
2022/01/18 07:31:15;;;;;;;19.80;6.18;;;7.00;99.90;;;;;;4852592;29;20041;-81
2022/01/18 07:33:50;;;;;;;16.83;4.87;;;7.00;99.90;;;;;;4833970;29;20042;-81
2022/01/18 07:36:18;;;;;;;19.92;7.18;;;7.00;99.90;;;;;;4849262;29;20038;-81
2022/01/18 07:38:55;;;;;;;25.08;6.18;;;7.00;99.90;;;;;;4842034;29;20038;-81
2022/01/18 07:41:29;;;;;;;18.17;6.80;;;7.00;99.90;;;;;;4815291;29;20038;-81
2022/01/18 07:44:01;;;;;;;21.98;6.78;;;7.00;99.90;;;;;;4844959;29;20045;-81
2022/01/18 07:46:27;;;;;;;21.13;7.28;;;7.00;99.90;;;;;;4851206;29;20025;-82
2022/01/18 07:48:59;;;;;;;23.08;7.68;;;7.00;99.90;;;;;;4832086;29;20046;-82
2022/01/18 07:51:28;;;;;;;22.42;7.20;;;7.00;99.90;;;;;;4855263;29;20049;-82
2022/01/18 07:54:00;;;;;;;22.80;8.40;;;7.00;99.90;;;;;;4859181;29;20049;-81
2022/01/18 07:56:31;;;;;;;21.42;7.80;;;7.00;99.90;;;;;;4848210;29;21376;-81
2022/01/18 07:59:00;;;;;;;21.25;8.55;;;7.00;99.90;;;;;;4852235;29;20038;-81
2022/01/18 08:01:34;;;;;;;27.60;8.45;;;7.00;99.90;;;;;;4849791;29;20037;-81
2022/01/18 08:04:02;;;;;;;21.75;8.13;;;7.00;99.90;;;;;;4842084;29;20049;-76
2022/01/18 08:06:29;;;;;;;19.88;8.15;;;7.00;99.90;;;;;;4849879;29;20053;-78
2022/01/18 08:09:01;;;;;;;21.63;7.88;;;7.00;99.90;;;;;;4831354;29;20072;-78
2022/01/18 08:11:28;;;;;;;23.75;8.90;;;7.00;99.90;;;;;;4833791;29;20904;-80
2022/01/18 08:13:57;;;;;;;24.42;7.70;;;7.00;99.90;;;;;;4850568;29;20033;-79
2022/01/18 08:19:01;;;;;;;24.67;8.18;;;7.10;99.90;;;;;;4850137;29;20042;-79
2022/01/18 08:21:30;;;;;;;25.37;8.20;;;7.00;99.90;;;;;;4825985;29;20045;-80
2022/01/18 08:23:57;;;;;;;28.17;8.35;;;7.10;99.90;;;;;;4853472;29;20049;-77
2022/01/18 08:26:25;;;;;;;24.90;8.90;;;7.10;99.90;;;;;;4848945;29;20786;-78
2022/01/18 08:28:53;;;;;;;19.98;7.75;;;7.10;99.90;;;;;;4849835;29;20037;-81
2022/01/18 08:31:25;;;;;;;22.77;7.68;;;7.10;99.90;;;;;;4848182;29;20040;-80
2022/01/18 08:33:55;;;;;;;31.05;8.35;;;7.10;99.90;;;;;;4846110;29;20037;-80
2022/01/18 08:36:31;;;;;;;19.85;6.72;;;7.10;99.90;;;;;;4848107;29;20038;-80
2022/01/18 08:39:02;;;;;;;24.90;7.10;;;7.10;99.90;;;;;;4837662;29;20378;-80
2022/01/18 08:41:32;;;;;;;;;;;7.10;99.90;;;;;;4837333;29;20034;-80
2022/01/18 08:44:06;;;;;;;16.13;6.57;;;7.10;99.90;;;;;;4853688;29;19920;-80
2022/01/18 08:46:40;;;;;;;19.17;6.93;;;7.10;99.90;;;;;;4848814;29;20041;-79
2022/01/18 08:49:08;;;;;;;22.67;8.50;;;7.10;99.90;;;;;;4848445;29;20060;-79
2022/01/18 08:51:39;;;;;;;21.27;6.85;;;7.10;99.90;;;;;;4846993;29;20050;-80
2022/01/18 08:54:07;;;;;;;22.67;8.15;;;7.10;99.90;;;;;;4832562;29;20053;-80
2022/01/18 08:56:43;;;;;;;39.00;8.82;;;7.20;99.90;;;;;;4849723;29;20048;-79
2022/01/18 08:59:11;;;;;;;22.60;8.65;;;7.20;99.90;;;;;;4831141;29;20144;-79
2022/01/18 09:01:38;;;;;;;39.25;8.68;;;7.10;99.90;;;;;;4847234;29;20402;-79
2022/01/18 09:04:04;;;;;;;22.98;8.30;;;7.20;99.90;;;;;;4852463;29;20062;-79
2022/01/18 09:06:32;;;;;;;21.98;7.20;;;7.20;99.90;;;;;;4819354;29;20054;-79
2022/01/18 09:08:59;;;;;;;39.30;8.15;;;7.20;99.90;;;;;;4824975;29;20037;-79
2022/01/18 09:11:30;;;;;;;43.00;7.90;;;7.20;99.90;;;;;;4827751;29;20730;-79
2022/01/18 09:13:58;;;;;;;67.28;9.18;;;7.20;99.90;;;;;;4841258;29;20482;-79
2022/01/18 09:16:29;;;;;;;39.63;9.05;;;7.20;99.90;;;;;;4823878;29;20046;-79
2022/01/18 09:18:58;;;;;;;33.30;8.00;;;7.20;99.90;;;;;;4826529;29;20045;-79
2022/01/18 09:21:35;;;;;;;46.20;10.18;;;7.20;99.90;;;;;;4832767;29;20050;-81
2022/01/18 09:24:02;;;;;;;27.13;9.35;;;7.10;99.90;;;;;;4814632;29;20049;-82
2022/01/18 09:26:29;;;;;;;37.28;9.15;;;7.10;99.90;;;;;;4828379;29;20110;-79
2022/01/18 09:28:56;;;;;;;25.45;7.72;;;7.00;99.90;;;;;;4830664;29;20034;-79
2022/01/18 09:31:25;;;;;;;38.45;7.18;;;7.10;99.90;;;;;;4825963;29;20498;-79
2022/01/18 09:33:52;;;;;;;33.42;6.93;;;7.10;99.90;;;;;;4834462;29;20514;-82
2022/01/18 09:36:20;;;;;;;53.33;7.70;;;7.10;99.90;;;;;;4834488;29;20050;-82
2022/01/18 09:38:49;;;;;;;34.80;6.25;;;7.00;99.90;;;;;;4814064;29;20065;-81
2022/01/18 09:41:21;;;;;;;31.67;4.88;;;7.00;99.90;;;;;;4826394;29;20038;-81
2022/01/18 09:43:48;;;;;;;26.02;5.05;;;6.90;99.90;;;;;;4813525;29;20046;-78
2022/01/18 09:46:15;;;;;;;21.40;4.28;;;6.80;99.90;;;;;;4824362;29;20034;-82
2022/01/18 09:48:41;;;;;;;68.68;5.13;;;6.80;99.90;;;;;;4824736;29;20041;-80
2022/01/18 09:51:09;;;;;;;67.40;5.53;;;6.70;99.90;;;;;;4827770;29;20026;-79
2022/01/18 09:53:35;;;;;;;28.95;4.82;;;6.70;99.90;;;;;;4813524;29;20038;-79
2022/01/18 09:56:01;;;;;;;25.45;5.50;;;6.80;99.90;;;;;;4827287;29;20045;-77
2022/01/18 09:58:29;;;;;;;25.25;4.80;;;6.80;99.90;;;;;;4826359;29;20050;-80
2022/01/18 10:00:56;;;;;;;31.70;4.35;;;6.90;99.90;;;;;;4810620;29;20042;-79
2022/01/18 10:03:27;;;;;;;26.38;4.47;;;7.00;99.90;;;;;;4830121;29;20030;-78
2022/01/18 10:05:55;;;;;;;27.00;5.15;;;7.00;99.90;;;;;;4812556;29;20043;-80
2022/01/18 10:08:23;;;;;;;29.75;10.52;;;7.10;99.90;;;;;;4831210;29;20124;-80
2022/01/18 10:10:55;;;;;;;31.27;7.65;;;7.10;99.90;;;;;;4839337;29;20034;-81
2022/01/18 10:13:26;;;;;;;15.43;5.75;;;7.10;99.90;;;;;;4845610;29;20053;-78
2022/01/18 10:16:02;;;;;;;16.90;4.88;;;7.10;99.90;;;;;;4853775;29;20034;-80
2022/01/18 10:18:35;;;;;;;10.88;4.38;;;7.20;99.90;;;;;;4855720;29;20052;-81
2022/01/18 10:21:02;;;;;;;24.58;4.03;;;7.20;99.90;;;;;;4851548;29;20034;-81
2022/01/18 10:23:29;;;;;;;9.20;4.03;;;7.20;99.90;;;;;;4836466;29;20045;-80
2022/01/18 10:25:55;;;;;;;13.50;4.05;;;7.20;99.90;;;;;;4852902;29;20064;-80
2022/01/18 10:28:31;;;;;;;13.07;4.07;;;7.20;99.90;;;;;;4851381;29;20042;-80
2022/01/18 10:31:03;;;;;;;22.90;4.40;;;7.20;99.90;;;;;;4851547;29;20029;-80
2022/01/18 10:33:36;;;;;;;18.90;4.75;;;7.30;99.90;;;;;;4847054;29;20042;-80
2022/01/18 10:36:10;;;;;;;19.08;5.60;;;7.30;99.90;;;;;;4846120;29;20077;-80
2022/01/18 10:38:58;;;;;;;24.75;4.68;;;7.30;99.90;;;;;;4850604;29;20046;-81
2022/01/18 10:41:32;;;;;;;15.43;5.23;;;7.30;99.90;;;;;;4849355;29;20111;-80
2022/01/18 10:44:31;;;;;;;21.67;5.53;;;7.30;99.90;;;;;;4849484;29;20303;-79
2022/01/18 10:47:00;;;;;;;18.02;5.68;;;7.30;99.90;;;;;;4842451;29;20053;-77
2022/01/18 10:49:46;;;;;;;22.13;5.57;;;7.40;99.90;;;;;;4846466;29;20046;-79
2022/01/18 10:52:24;;;;;;;26.70;6.03;;;7.30;99.90;;;;;;4847696;29;20038;-78
2022/01/18 10:54:56;;;;;;;23.45;6.18;;;7.30;99.90;;;;;;4856687;29;20046;-81
2022/01/18 10:57:41;;;;;;;33.30;6.03;;;7.40;99.90;;;;;;4844327;29;20038;-79
2022/01/18 11:00:27;;;;;;;15.32;5.93;;;7.40;99.90;;;;;;4847650;29;20062;-78
2022/01/18 11:03:12;;;;;;;24.10;6.78;;;7.40;99.90;;;;;;4852014;29;20053;-78
2022/01/18 11:05:46;;;;;;;17.05;6.30;;;7.40;99.90;;;;;;4835508;29;20033;-77
2022/01/18 11:08:31;;;;;;;18.73;6.55;;;7.40;99.90;;;;;;4847814;29;20477;-77
2022/01/18 11:11:29;;;;;;;21.38;6.97;;;7.40;99.90;;;;;;4845459;29;20038;-78
2022/01/18 11:14:01;;;;;;;18.08;6.80;;;7.40;99.90;;;;;;4833147;29;20042;-78
2022/01/18 11:16:52;;;;;;;16.38;5.50;;;7.50;99.90;;;;;;4846965;29;20041;-78
2022/01/18 11:20:05;;;;;;;12.73;5.68;;;7.50;99.90;;;;;;4843764;29;20046;-78
2022/01/18 11:22:39;;;;;;;11.32;4.80;;;7.50;99.90;;;;;;4847535;29;20037;-77
2022/01/18 11:25:13;;;;;;;12.30;5.15;;;7.50;99.90;;;;;;4806638;29;20497;-77
2022/01/18 11:28:06;;;;;;;11.90;5.35;;;7.60;99.90;;;;;;4843254;29;20052;-80
2022/01/18 11:30:42;;;;;;;13.75;4.60;;;7.60;99.90;;;;;;4847803;29;20517;-78
2022/01/18 11:33:16;;;;;;;15.82;5.68;;;7.50;99.90;;;;;;4846760;29;20064;-80
2022/01/18 11:36:15;;;;;;;11.13;5.60;;;7.50;99.90;;;;;;4849080;29;20393;-83
2022/01/18 11:39:34;;;;;;;14.35;5.40;;;7.50;99.90;;;;;;4848719;29;20046;-82
2022/01/18 11:42:33;;;;;;;13.80;5.35;;;7.50;99.90;;;;;;4848898;29;20050;-81
2022/01/18 11:46:00;;;;;;;12.95;5.18;;;7.60;99.90;;;;;;4839571;29;20041;-81
2022/01/18 11:48:43;;;;;;;14.10;6.60;;;7.70;99.90;;;;;;4850396;29;20026;-81
2022/01/18 11:51:38;;;;;;;18.77;6.50;;;7.70;99.90;;;;;;4831302;29;20073;-81
2022/01/18 11:54:37;;;;;;;11.13;5.15;;;7.80;99.90;;;;;;4864675;29;20056;-86
2022/01/18 11:57:37;;;;;;;13.27;6.03;;;7.90;99.90;;;;;;4830065;29;20040;-80
2022/01/18 12:00:32;;;;;;;17.98;7.03;;;7.90;99.90;;;;;;4809999;29;20056;-80
2022/01/18 12:03:48;;;;;;;17.92;6.70;;;7.90;99.90;;;;;;4832930;29;20049;-81
2022/01/18 12:06:54;;;;;;;13.63;6.63;;;7.80;99.90;;;;;;4823681;29;20042;-81
2022/01/18 12:10:10;;;;;;;17.33;7.50;;;7.80;99.90;;;;;;4800643;29;20055;-82
2022/01/18 12:12:48;;;;;;;14.48;6.45;;;7.80;99.90;;;;;;4827662;29;20041;-83
2022/01/18 12:15:55;;;;;;;13.07;6.05;;;7.80;99.90;;;;;;4832485;29;20049;-81
2022/01/18 12:22:59;;;;;;;12.85;5.85;;;7.80;99.90;;;;;;4814007;29;20454;-83
2022/01/18 12:25:31;;;;;;;17.98;7.40;;;7.90;99.90;;;;;;4833375;29;20454;-83
2022/01/18 12:28:49;;;;;;;10.52;5.25;;;7.90;99.90;;;;;;4846118;29;20348;-83
2022/01/18 12:32:17;;;;;;;17.08;6.30;;;7.80;99.90;;;;;;4858520;29;20061;-82
2022/01/18 12:35:13;;;;;;;19.05;6.90;;;7.80;99.90;;;;;;4845901;29;20057;-86
2022/01/18 12:37:44;;;;;;;18.40;6.53;;;7.80;99.90;;;;;;4829341;29;20056;-83
2022/01/18 12:40:25;;;;;;;20.85;6.97;;;7.80;99.90;;;;;;4836069;29;20034;-84
2022/01/18 12:45:43;;;;;;;20.27;7.85;;;7.90;99.90;;;;;;4850269;29;20489;-83
2022/01/18 12:48:26;;;;;;;17.42;7.10;;;7.90;99.90;;;;;;4849375;29;20050;-83
2022/01/18 12:50:58;;;;;;;21.30;7.43;;;7.90;99.90;;;;;;4837559;29;20482;-83
2022/01/18 12:53:41;;;;;;;;;;;;;;;;;;;;;
2022/01/18 12:56:22;;;;;;;17.33;7.25;;;8.00;99.90;;;;;;4849105;29;20060;-83
2022/01/18 12:58:49;;;;;;;21.05;7.60;;;8.00;99.90;;;;;;4846946;29;20830;-80
2022/01/18 13:01:28;;;;;;;19.00;6.85;;;8.00;99.90;;;;;;4833771;29;20045;-80
2022/01/18 13:04:07;;;;;;;18.33;7.38;;;8.00;99.90;;;;;;4833659;29;20465;-80
2022/01/18 13:06:39;;;;;;;17.63;6.97;;;8.00;99.90;;;;;;4821233;29;20788;-80
2022/01/18 13:09:33;;;;;;;23.75;7.57;;;8.10;99.90;;;;;;4850368;29;20393;-85
2022/01/18 13:12:09;;;;;;;21.63;8.20;;;8.10;99.90;;;;;;4838489;29;20370;-80
2022/01/18 13:14:55;;;;;;;17.42;7.57;;;8.20;99.90;;;;;;4848788;29;20042;-80
2022/01/18 13:26:52;;;;;;;22.05;8.10;;;8.30;99.90;;;;;;4852702;29;20038;-80
2022/01/18 13:29:48;;;;;;;19.40;7.30;;;8.30;99.90;;;;;;4846033;29;20056;-80
2022/01/18 13:32:31;;;;;;;16.80;6.07;;;8.30;99.90;;;;;;4834551;29;20393;-80
2022/01/18 13:35:03;;;;;;;18.95;8.13;;;8.40;99.90;;;;;;4837752;29;20061;-78
2022/01/18 13:37:39;;;;;;;22.58;8.48;;;8.50;99.90;;;;;;4850976;29;20385;-79
2022/01/18 13:40:17;;;;;;;21.50;7.25;;;8.60;99.90;;;;;;4851708;29;20048;-78
2022/01/18 13:42:53;;;;;;;19.40;7.03;;;8.60;99.90;;;;;;4835890;29;20050;-78
2022/01/18 13:45:33;;;;;;;22.75;8.40;;;8.60;99.90;;;;;;4850001;29;20034;-79
2022/01/18 13:48:13;;;;;;;28.42;8.30;;;8.70;99.90;;;;;;4847521;29;20046;-79
2022/01/18 13:50:58;;;;;;;17.80;6.68;;;8.70;99.90;;;;;;4842526;29;20053;-78
2022/01/18 13:53:34;;;;;;;25.00;8.27;;;8.70;99.90;;;;;;4849789;29;20041;-83
2022/01/18 13:56:32;;;;;;;19.38;7.38;;;8.70;99.90;;;;;;4847452;29;20045;-85
2022/01/18 13:59:27;;;;;;;26.25;8.77;;;8.70;99.90;;;;;;4843221;29;20112;-79
2022/01/18 14:02:12;;;;;;;27.02;9.45;;;8.70;99.90;;;;;;4829315;29;20050;-80
2022/01/18 14:04:48;;;;;;;24.75;7.78;;;8.70;99.90;;;;;;4851385;29;20037;-80
2022/01/18 14:07:17;;;;;;;27.73;8.00;;;8.70;99.90;;;;;;4851370;29;20409;-79
2022/01/18 14:09:58;;;;;;;24.73;10.38;;;8.70;99.90;;;;;;4851473;29;20393;-79
2022/01/18 14:12:34;;;;;;;31.80;7.53;;;8.70;99.90;;;;;;4834978;29;20052;-84
2022/01/18 14:15:07;;;;;;;19.60;7.22;;;8.60;99.90;;;;;;4837671;29;20041;-81
2022/01/18 14:17:36;;;;;;;20.30;6.65;;;8.60;99.90;;;;;;4851392;29;20052;-80
2022/01/18 14:20:15;;;;;;;27.85;6.43;;;8.60;99.90;;;;;;4848680;29;20405;-80
2022/01/18 14:22:56;;;;;;;23.90;6.40;;;8.60;99.90;;;;;;4826421;29;20406;-82
2022/01/18 14:25:30;;;;;;;27.83;7.23;;;8.50;99.90;;;;;;4843119;29;20578;-81
2022/01/18 14:28:14;;;;;;;24.27;6.32;;;8.50;99.90;;;;;;4840553;29;20049;-79
2022/01/18 14:30:48;;;;;;;20.95;4.75;;;8.50;99.90;;;;;;4839907;29;20042;-81
2022/01/18 14:34:01;;;;;;;23.63;6.03;;;8.50;99.90;;;;;;4845723;29;20046;-81
2022/01/18 14:37:02;;;;;;;21.27;6.13;;;8.40;99.90;;;;;;4803306;29;20046;-81
2022/01/18 14:40:02;;;;;;;23.30;7.03;;;8.40;99.90;;;;;;4824585;29;20129;-79
2022/01/18 14:42:56;;;;;;;30.58;6.75;;;8.30;99.90;;;;;;4772284;29;20439;-79
2022/01/18 14:48:43;;;;;;;;;;;8.20;99.90;;;;;;4822939;29;20417;-82
2022/01/18 14:51:16;;;;;;;24.52;7.90;;;8.10;99.90;;;;;;4811154;29;20300;-81
2022/01/18 14:53:44;;;;;;;29.33;7.85;;;8.10;99.90;;;;;;4811486;29;20054;-81
2022/01/18 14:56:12;;;;;;;23.25;9.15;;;8.10;99.90;;;;;;4824382;29;20504;-81
2022/01/18 14:58:39;;;;;;;24.33;8.43;;;8.00;99.90;;;;;;4811518;29;20526;-82
2022/01/18 15:01:14;;;;;;;19.55;9.10;;;8.00;99.90;;;;;;4838417;29;20430;-86
2022/01/18 15:03:45;;;;;;;33.10;9.30;;;8.00;99.90;;;;;;4843116;29;20066;-80